Time;durP1;ratioP1;P1;durP2;ratioP2;P2;SDS_P1;SDS_P2;PMS_P1;PMS_P2;Temp;Humidity;BMP_temperature;BMP_pressure;BME280_temperature;BME280_humidity;BME280_pressure;Samples;Min_cycle;Max_cycle;Signal;HPM_P1;HPM_P2
2023/09/20 00:01:14;;;;;;;1.90;1.37;;;;;;;16.70;92.45;98023.41;5053136;28;20629;-73
2023/09/20 00:03:40;;;;;;;1.83;1.50;;;;;;;16.70;94.39;98025.28;5053085;28;20279;-73
2023/09/20 00:06:09;;;;;;;1.60;1.50;;;;;;;16.64;96.07;98026.31;5052996;28;20576;-73
2023/09/20 00:08:36;;;;;;;1.60;1.50;;;;;;;16.67;95.10;98025.78;5053369;28;20231;-73
2023/09/20 00:11:05;;;;;;;2.00;1.70;;;;;;;16.61;95.94;98026.84;5053379;28;20284;-73
2023/09/20 00:13:33;;;;;;;2.13;1.63;;;;;;;16.57;99.97;98017.69;5053283;28;20252;-73
2023/09/20 00:16:00;;;;;;;1.73;1.43;;;;;;;16.52;100.00;98020.31;5053287;28;20575;-73
2023/09/20 00:18:27;;;;;;;1.80;1.70;;;;;;;16.51;98.55;98021.41;5053225;28;20225;-73
2023/09/20 00:20:53;;;;;;;3.60;1.57;;;;;;;16.52;97.67;98026.47;5053241;28;20205;-73
2023/09/20 00:23:21;;;;;;;1.40;1.30;;;;;;;16.60;98.71;98014.50;5053096;28;20221;-73
2023/09/20 00:25:49;;;;;;;1.67;1.50;;;;;;;16.55;98.75;98004.50;5053267;28;20308;-73
2023/09/20 00:28:17;;;;;;;1.57;1.47;;;;;;;16.51;100.00;98005.28;5053267;28;20232;-73
2023/09/20 00:30:45;;;;;;;2.23;1.40;;;;;;;16.51;98.21;98005.28;5053166;28;20205;-73
2023/09/20 00:33:12;;;;;;;1.60;1.50;;;;;;;16.48;100.00;98009.31;5053117;28;20202;-73
2023/09/20 00:35:39;;;;;;;2.37;1.50;;;;;;;16.55;100.00;98001.81;5053081;28;20209;-73
2023/09/20 00:38:06;;;;;;;2.00;1.47;;;;;;;16.52;100.00;97996.97;5053031;28;20286;-73
2023/09/20 00:40:35;;;;;;;2.27;1.37;;;;;;;16.56;100.00;98005.31;5052789;28;20599;-73
2023/09/20 00:43:03;;;;;;;1.90;1.40;;;;;;;16.51;100.00;98006.09;5052934;28;20228;-73
2023/09/20 00:45:30;;;;;;;2.23;1.40;;;;;;;16.51;100.00;98000.72;5052967;28;20206;-73
2023/09/20 00:47:59;;;;;;;2.57;1.47;;;;;;;16.52;100.00;97993.50;5053025;28;20221;-73
2023/09/20 00:50:28;;;;;;;3.47;2.40;;;;;;;16.51;100.00;97995.34;5052728;28;20210;-73
2023/09/20 00:52:56;;;;;;;4.83;2.93;;;;;;;16.51;100.00;97997.25;5052929;28;20292;-73
2023/09/20 00:55:26;;;;;;;6.43;2.60;;;;;;;16.43;100.00;98000.41;5052975;28;20217;-73
2023/09/20 00:57:57;;;;;;;5.70;2.40;;;;;;;16.39;100.00;97989.34;5056301;28;20237;-73
2023/09/20 01:00:27;;;;;;;2.17;1.80;;;;;;;16.32;100.00;97990.59;5056510;28;20209;-73
2023/09/20 01:02:58;;;;;;;2.53;1.63;;;;;;;16.35;100.00;97990.09;5056036;28;20545;-73
2023/09/20 01:05:26;;;;;;;4.60;1.80;;;;;;;16.37;100.00;97986.09;5056014;28;20185;-73
2023/09/20 01:07:54;;;;;;;12.00;8.33;;;;;;;16.37;100.00;97977.25;5056221;28;20233;-73
2023/09/20 01:10:23;;;;;;;7.13;5.73;;;;;;;16.42;100.00;97982.69;5056203;28;20626;-73
2023/09/20 01:12:53;;;;;;;15.87;8.10;;;;;;;16.31;100.00;97979.09;5056173;28;20237;-73
2023/09/20 01:15:20;;;;;;;14.10;8.70;;;;;;;16.30;100.00;97982.03;5056125;28;20241;-73
2023/09/20 01:17:55;;;;;;;21.37;8.83;;;;;;;16.26;100.00;97986.28;5055695;28;20227;-73
2023/09/20 01:20:24;;;;;;;8.07;4.70;;;;;;;16.28;100.00;97982.28;5055641;28;20594;-73
2023/09/20 01:22:51;;;;;;;4.27;2.13;;;;;;;16.34;100.00;97981.25;5055538;28;20225;-73
2023/09/20 01:25:23;;;;;;;2.30;2.10;;;;;;;16.33;100.00;97978.84;5055935;28;20224;-73
2023/09/20 01:27:51;;;;;;;2.83;1.90;;;;;;;16.35;100.00;97977.50;5055544;28;20232;-73
2023/09/20 01:30:18;;;;;;;1.60;1.50;;;;;;;16.45;100.00;97988.34;5055857;28;20209;-73
2023/09/20 01:32:45;;;;;;;2.10;1.73;;;;;;;16.40;100.00;97990.16;5055506;28;20680;-73
2023/09/20 01:35:14;;;;;;;2.40;2.07;;;;;;;16.24;100.00;97975.78;5055758;28;20201;-73
2023/09/20 01:37:42;;;;;;;5.17;2.10;;;;;;;16.18;100.00;97981.38;5055320;28;20731;-73
2023/09/20 01:40:15;;;;;;;7.33;2.70;;;;;;;16.15;100.00;97985.38;5055684;28;20580;-73
2023/09/20 01:42:42;;;;;;;4.77;2.53;;;;;;;15.92;100.00;97982.25;5055570;28;20217;-73
2023/09/20 01:45:14;;;;;;;4.17;2.73;;;;;;;15.88;100.00;97981.91;5055613;28;20213;-73
2023/09/20 01:47:41;;;;;;;5.43;3.23;;;;;;;15.78;100.00;97975.69;5055281;28;20320;-73
2023/09/20 01:50:08;;;;;;;3.77;2.93;;;;;;;15.76;100.00;97983.97;5055506;28;20206;-73
2023/09/20 01:52:36;;;;;;;5.93;3.10;;;;;;;15.73;100.00;97979.09;5055143;28;20217;-73
2023/09/20 01:55:03;;;;;;;4.33;3.10;;;;;;;15.72;100.00;97977.50;5055404;28;20232;-73
2023/09/20 01:57:29;;;;;;;5.90;3.13;;;;;;;15.63;100.00;97968.28;5055086;28;20232;-73
2023/09/20 01:59:57;;;;;;;4.03;2.50;;;;;;;15.59;100.00;97974.38;5053213;28;20204;-73
2023/09/20 02:02:23;;;;;;;3.17;2.63;;;;;;;15.49;100.00;97972.44;5051145;28;20687;-73
2023/09/20 02:04:49;;;;;;;4.70;2.50;;;;;;;15.40;100.00;97973.13;5054110;28;20216;-73
2023/09/20 02:07:16;;;;;;;4.70;3.37;;;;;;;15.42;100.00;97958.41;5054647;28;20221;-73
2023/09/20 02:09:42;;;;;;;4.27;2.73;;;;;;;15.46;100.00;97967.56;5055189;28;20235;-73
2023/09/20 02:12:09;;;;;;;2.83;2.60;;;;;;;15.55;100.00;97966.06;5055111;28;20209;-73
2023/09/20 02:14:35;;;;;;;4.33;2.83;;;;;;;15.57;100.00;97965.81;5055165;28;20204;-73
2023/09/20 02:17:02;;;;;;;5.13;3.23;;;;;;;15.57;100.00;97966.63;5054932;28;20211;-73
2023/09/20 02:19:28;;;;;;;4.37;3.03;;;;;;;15.54;100.00;97966.31;5055259;28;20213;-73
2023/09/20 02:21:55;;;;;;;5.57;2.90;;;;;;;15.40;100.00;97965.91;5054654;28;20672;-73
2023/09/20 02:24:23;;;;;;;5.93;3.50;;;;;;;15.31;100.00;97963.88;5054619;28;20692;-73
2023/09/20 02:26:49;;;;;;;5.27;3.40;;;;;;;15.38;100.00;97964.53;5054900;28;20288;-73
2023/09/20 02:29:15;;;;;;;4.10;3.20;;;;;;;15.36;100.00;97962.09;5054738;28;20274;-73
2023/09/20 02:31:42;;;;;;;4.97;3.17;;;;;;;15.29;100.00;97949.94;5054772;28;20205;-73
2023/09/20 02:34:08;;;;;;;5.00;3.23;;;;;;;15.29;100.00;97956.09;5054769;28;20560;-73
2023/09/20 02:36:35;;;;;;;6.40;3.00;;;;;;;15.36;100.00;97962.09;5054630;28;20217;-73
2023/09/20 02:39:01;;;;;;;6.47;3.00;;;;;;;15.36;100.00;97954.06;5054555;28;20221;-73
2023/09/20 02:41:27;;;;;;;5.17;3.00;;;;;;;15.40;100.00;97954.38;5054580;28;20209;-73
2023/09/20 02:43:54;;;;;;;4.13;2.50;;;;;;;15.35;100.00;97954.31;5054546;28;20236;-73
2023/09/20 02:46:20;;;;;;;4.77;3.00;;;;;;;15.34;100.00;97958.84;5054410;28;20201;-73
2023/09/20 02:48:47;;;;;;;3.23;2.67;;;;;;;15.41;100.00;97956.81;5054380;28;20221;-73
2023/09/20 02:51:14;;;;;;;5.30;2.70;;;;;;;15.31;100.00;97959.34;5054160;28;20228;-73
2023/09/20 02:53:40;;;;;;;4.63;2.60;;;;;;;15.18;100.00;97958.91;5054327;28;20200;-73
2023/09/20 02:56:08;;;;;;;4.37;2.47;;;;;;;15.15;100.00;97962.91;5053827;28;20235;-73
2023/09/20 02:58:36;;;;;;;4.87;3.07;;;;;;;15.08;100.00;97959.63;5053592;28;20236;-73
2023/09/20 03:01:03;;;;;;;3.00;2.70;;;;;;;15.09;100.00;97961.22;5054050;28;20205;-73
2023/09/20 03:03:29;;;;;;;3.10;2.50;;;;;;;15.06;100.00;97955.56;5053994;28;20228;-73
2023/09/20 03:05:56;;;;;;;4.13;2.77;;;;;;;14.99;100.00;97954.94;5053917;28;20208;-73
2023/09/20 03:08:24;;;;;;;3.03;2.47;;;;;;;15.00;100.00;97945.84;5053833;28;20643;-73
2023/09/20 03:10:53;;;;;;;6.33;2.37;;;;;;;14.96;100.00;97945.53;5053612;28;20205;-73
2023/09/20 03:13:19;;;;;;;5.73;2.70;;;;;;;15.00;100.00;97938.63;5053840;28;20279;-73
2023/09/20 03:15:48;;;;;;;5.63;2.80;;;;;;;15.05;100.00;97937.84;5053830;28;20211;-73
2023/09/20 03:18:15;;;;;;;4.00;2.67;;;;;;;15.04;100.00;97938.91;5053489;28;20225;-73
2023/09/20 03:20:43;;;;;;;3.17;2.40;;;;;;;14.96;100.00;97942.03;5053456;28;20259;-73
2023/09/20 03:23:10;;;;;;;2.83;2.47;;;;;;;14.98;100.00;97938.06;5052285;28;20225;-73
2023/09/20 03:25:36;;;;;;;5.00;2.60;;;;;;;15.00;100.00;97937.81;5050092;28;20205;-73
2023/09/20 03:28:04;;;;;;;4.10;2.63;;;;;;;15.02;100.00;97939.16;5053815;28;20233;-73
2023/09/20 03:30:31;;;;;;;3.20;2.20;;;;;;;15.01;100.00;97931.41;5053386;28;20292;-73
2023/09/20 03:32:58;;;;;;;2.60;2.40;;;;;;;14.95;100.00;97929.72;5053525;28;20292;-73
2023/09/20 03:35:25;;;;;;;3.43;2.60;;;;;;;14.85;100.00;97930.41;5053490;28;20205;-73
2023/09/20 03:37:52;;;;;;;2.30;2.10;;;;;;;14.87;100.00;97928.28;5053283;28;20221;-73
2023/09/20 03:40:19;;;;;;;4.63;2.77;;;;;;;14.83;100.00;97918.34;5053581;28;20205;-73
2023/09/20 03:42:47;;;;;;;4.50;2.40;;;;;;;14.76;100.00;97918.53;5053529;28;20213;-73
2023/09/20 03:45:14;;;;;;;2.37;2.20;;;;;;;14.63;100.00;97924.22;5053612;28;20212;-73
2023/09/20 03:47:49;;;;;;;3.80;2.53;;;;;;;14.56;100.00;97914.78;5052799;28;20625;-73
2023/09/20 03:50:18;;;;;;;4.13;2.20;;;;;;;14.64;100.00;97917.00;5053346;28;20205;-73
2023/09/20 03:52:45;;;;;;;3.47;2.40;;;;;;;14.67;100.00;97921.88;5053444;28;20262;-73
2023/09/20 03:55:12;;;;;;;6.17;2.90;;;;;;;14.76;100.00;97915.03;5053505;28;20212;-73
2023/09/20 03:57:38;;;;;;;5.83;2.60;;;;;;;14.76;100.00;97918.53;5052833;28;20638;-73
2023/09/20 04:00:07;;;;;;;5.43;2.57;;;;;;;14.75;100.00;97910.75;5053113;28;20194;-73
2023/09/20 04:02:34;;;;;;;6.33;2.60;;;;;;;14.80;100.00;97903.59;5053154;28;20201;-73
2023/09/20 04:05:07;;;;;;;7.80;3.00;;;;;;;14.77;100.00;97897.91;5053153;28;20315;-73
2023/09/20 04:07:33;;;;;;;5.70;2.93;;;;;;;14.74;100.00;97903.78;5052789;28;20307;-73
2023/09/20 04:10:02;;;;;;;5.33;2.73;;;;;;;14.74;100.00;97903.78;5053273;28;20212;-73
2023/09/20 04:12:28;;;;;;;3.50;2.70;;;;;;;14.75;100.00;97908.84;5053315;28;20255;-73
2023/09/20 04:14:55;;;;;;;5.30;3.00;;;;;;;14.72;100.00;97914.72;5053344;28;20561;-73
2023/09/20 04:17:25;;;;;;;6.27;3.10;;;;;;;14.83;100.00;97913.00;5052846;28;20220;-73
2023/09/20 04:19:52;;;;;;;6.30;2.97;;;;;;;14.65;100.00;97906.06;5052959;28;20194;-73
2023/09/20 04:22:18;;;;;;;7.30;2.90;;;;;;;14.60;100.00;97908.66;5052870;28;20318;-73
2023/09/20 04:24:45;;;;;;;4.63;3.00;;;;;;;14.67;100.00;97909.31;5053141;28;20232;-73
2023/09/20 04:27:11;;;;;;;5.90;3.20;;;;;;;14.66;100.00;97912.22;5053066;28;20201;-73
2023/09/20 04:29:37;;;;;;;7.03;3.33;;;;;;;14.74;100.00;97907.25;5053327;28;20205;-73
2023/09/20 04:32:04;;;;;;;3.27;2.97;;;;;;;14.56;100.00;97902.19;5056513;28;20205;-73
2023/09/20 04:34:30;;;;;;;4.80;2.80;;;;;;;14.60;100.00;97902.53;5056796;28;20235;-73
2023/09/20 04:36:57;;;;;;;5.03;3.10;;;;;;;14.52;100.00;97901.06;5056323;28;20201;-73
2023/09/20 04:39:25;;;;;;;5.07;2.90;;;;;;;14.43;100.00;97883.03;5056474;28;20209;-73
2023/09/20 04:41:53;;;;;;;4.20;2.63;;;;;;;14.44;100.00;97884.63;5055828;28;20212;-73
2023/09/20 04:44:20;;;;;;;3.53;2.80;;;;;;;14.45;100.00;97891.59;5055969;28;20225;-73
2023/09/20 04:46:47;;;;;;;5.30;3.07;;;;;;;14.47;100.00;97892.97;5055572;28;20205;-73
2023/09/20 04:49:14;;;;;;;5.83;2.80;;;;;;;14.40;100.00;97892.34;5056201;28;20229;-73
2023/09/20 04:51:42;;;;;;;4.60;3.03;;;;;;;14.37;100.00;97890.16;5056317;28;20201;-73
2023/09/20 04:54:09;;;;;;;6.10;2.90;;;;;;;14.36;100.00;97888.56;5056328;28;20259;-73
2023/09/20 04:56:36;;;;;;;3.73;2.47;;;;;;;14.45;100.00;97895.09;5055858;28;20726;-73
2023/09/20 04:59:04;;;;;;;4.73;3.40;;;;;;;14.40;100.00;97894.22;5055777;28;20269;-73
2023/09/20 05:01:30;;;;;;;4.13;3.00;;;;;;;14.29;100.00;97893.25;5056174;28;20205;-73
2023/09/20 05:03:57;;;;;;;5.27;2.93;;;;;;;14.37;100.00;97905.38;5055872;28;20221;-73
2023/09/20 05:06:23;;;;;;;4.03;2.73;;;;;;;14.39;100.00;97896.06;5055951;28;20205;-73
2023/09/20 05:08:50;;;;;;;5.70;3.23;;;;;;;14.44;100.00;97892.66;5055935;28;20233;-73
2023/09/20 05:11:18;;;;;;;4.77;2.60;;;;;;;14.43;100.00;97891.06;5056037;28;20209;-73
2023/09/20 05:13:45;;;;;;;7.03;2.83;;;;;;;14.46;100.00;97895.88;5055317;28;20240;-73
2023/09/20 05:16:11;;;;;;;5.53;3.60;;;;;;;14.32;100.00;97895.44;5055696;28;20205;-73
2023/09/20 05:18:38;;;;;;;4.20;3.03;;;;;;;14.41;100.00;97899.31;5055706;28;20225;-73
2023/09/20 05:21:05;;;;;;;4.77;3.37;;;;;;;14.45;100.00;97892.41;5055548;28;20205;-73
2023/09/20 05:23:31;;;;;;;4.20;3.10;;;;;;;14.51;100.00;97891.44;5055619;28;20331;-73
2023/09/20 05:25:57;;;;;;;3.80;2.90;;;;;;;14.51;100.00;97899.44;5055141;28;20201;-73
2023/09/20 05:28:25;;;;;;;5.10;3.00;;;;;;;14.57;100.00;97903.00;5055387;28;20221;-73
2023/09/20 05:30:52;;;;;;;6.00;2.90;;;;;;;14.51;100.00;97904.81;5055718;28;20255;-73
2023/09/20 05:33:18;;;;;;;6.83;3.10;;;;;;;14.53;100.00;97896.53;5055141;28;20205;-73
2023/09/20 05:35:46;;;;;;;5.10;2.80;;;;;;;14.52;100.00;97901.06;5055217;28;20574;-73
2023/09/20 05:38:13;;;;;;;4.30;2.80;;;;;;;14.55;100.00;97895.22;5055251;28;20225;-73
2023/09/20 05:40:39;;;;;;;4.33;2.53;;;;;;;14.75;100.00;97892.00;5054931;28;20216;-73
2023/09/20 05:43:06;;;;;;;4.53;2.97;;;;;;;14.72;100.00;97895.16;5054215;28;20694;-73
2023/09/20 05:45:33;;;;;;;4.43;2.70;;;;;;;14.82;100.00;97888.09;5054728;28;20249;-73
2023/09/20 05:48:01;;;;;;;5.30;2.90;;;;;;;14.83;100.00;97886.22;5054812;28;20649;-73
2023/09/20 05:50:33;;;;;;;3.50;3.00;;;;;;;14.92;100.00;97892.75;5055169;28;20253;-73
2023/09/20 05:53:01;;;;;;;5.27;3.60;;;;;;;14.88;100.00;97899.66;5054387;28;20190;-73
2023/09/20 05:55:31;;;;;;;4.90;3.23;;;;;;;14.95;100.00;97903.75;5054693;28;20206;-73
2023/09/20 05:57:58;;;;;;;7.03;3.13;;;;;;;14.95;100.00;97905.63;5054913;28;20236;-73
2023/09/20 06:00:24;;;;;;;4.10;2.70;;;;;;;14.98;100.00;97905.13;5054567;28;20215;-73
2023/09/20 06:02:51;;;;;;;8.00;3.30;;;;;;;14.99;100.00;97907.56;5054530;28;20672;-73
2023/09/20 06:05:19;;;;;;;4.43;2.50;;;;;;;15.11;100.00;97905.53;5054776;28;20251;-73
2023/09/20 06:07:46;;;;;;;4.87;2.60;;;;;;;15.17;100.00;97919.81;5052100;28;20264;-73
2023/09/20 06:10:13;;;;;;;3.13;2.53;;;;;;;15.18;100.00;97911.53;5051618;28;20322;-73
2023/09/20 06:12:39;;;;;;;3.87;2.70;;;;;;;15.22;100.00;97912.63;5051307;28;20209;-73
2023/09/20 06:15:08;;;;;;;5.47;2.63;;;;;;;15.29;100.00;97907.09;5051347;28;20198;-73
2023/09/20 06:17:36;;;;;;;3.53;2.70;;;;;;;15.39;100.00;97916.06;5050568;28;20225;-73
2023/09/20 06:20:08;;;;;;;5.67;3.10;;;;;;;15.61;100.00;97918.69;5050918;28;20256;-73
2023/09/20 06:22:34;;;;;;;3.23;2.60;;;;;;;15.63;100.00;97919.22;5050889;28;20663;-73
2023/09/20 06:25:01;;;;;;;3.57;2.50;;;;;;;15.62;100.00;97910.41;5050900;28;20229;-73
2023/09/20 06:27:30;;;;;;;4.30;2.33;;;;;;;15.70;100.00;97917.16;5051493;28;20228;-77
2023/09/20 06:29:57;;;;;;;3.37;2.97;;;;;;;15.73;100.00;97912.09;5054131;28;20205;-73
2023/09/20 06:32:24;;;;;;;2.70;2.50;;;;;;;15.96;100.00;97911.75;5054053;28;20207;-73
2023/09/20 06:34:50;;;;;;;3.97;2.83;;;;;;;15.90;100.00;97906.59;5054091;28;20210;-73
2023/09/20 06:37:16;;;;;;;4.97;2.80;;;;;;;16.06;100.00;97906.47;5053959;28;20225;-73
2023/09/20 06:39:44;;;;;;;3.40;2.97;;;;;;;16.07;100.00;97897.38;5053692;28;20206;-73
2023/09/20 06:42:11;;;;;;;5.70;2.97;;;;;;;16.00;100.00;97899.44;5053968;28;20278;-73
2023/09/20 06:44:38;;;;;;;5.13;2.70;;;;;;;16.06;100.00;97898.41;5053682;28;20542;-73
2023/09/20 06:47:08;;;;;;;5.57;2.83;;;;;;;16.30;100.00;97896.16;5053629;28;20209;-73
2023/09/20 06:49:37;;;;;;;4.57;2.30;;;;;;;16.40;100.00;97899.75;5054522;28;20211;-73
2023/09/20 06:52:04;;;;;;;3.73;2.80;;;;;;;16.44;100.00;97895.50;5054060;28;20216;-72
2023/09/20 06:54:31;;;;;;;5.30;2.67;;;;;;;16.35;100.00;97888.97;5054116;28;20212;-72
2023/09/20 06:57:02;;;;;;;6.37;2.60;;;;;;;16.61;100.00;97890.72;5053473;28;20300;-73
2023/09/20 06:59:32;;;;;;;4.43;2.93;;;;;;;16.86;100.00;97888.19;5053398;28;20209;-73
2023/09/20 07:02:00;;;;;;;5.17;3.00;;;;;;;16.82;100.00;97880.94;5053657;28;20662;-73
2023/09/20 07:04:28;;;;;;;6.53;3.33;;;;;;;16.85;100.00;97889.25;5053399;28;20217;-73
2023/09/20 07:06:56;;;;;;;8.37;4.10;;;;;;;16.88;100.00;97888.72;5053238;28;20212;-73
2023/09/20 07:09:24;;;;;;;4.57;3.00;;;;;;;16.92;100.00;97881.75;5053819;28;20209;-73
2023/09/20 07:11:51;;;;;;;8.07;3.23;;;;;;;16.95;100.00;97881.22;5053703;28;20212;-73
2023/09/20 07:14:20;;;;;;;4.57;2.90;;;;;;;17.34;100.00;97879.75;5053268;28;20247;-73
2023/09/20 07:16:49;;;;;;;4.73;3.17;;;;;;;17.32;100.00;97871.13;5053782;28;20252;-73
2023/09/20 07:19:17;;;;;;;6.37;2.70;;;;;;;17.30;100.00;97877.84;5053554;28;20278;-73
2023/09/20 07:21:45;;;;;;;6.90;2.83;;;;;;;17.28;100.00;97878.09;5053537;28;20202;-73
2023/09/20 07:24:14;;;;;;;7.03;2.97;;;;;;;17.41;100.00;97874.94;5053467;28;20274;-73
2023/09/20 07:26:44;;;;;;;4.23;2.43;;;;;;;17.54;100.00;97876.28;5053456;28;20209;-73
2023/09/20 07:29:13;;;;;;;4.37;2.80;;;;;;;17.45;100.00;97875.19;5053430;28;20298;-73
2023/09/20 07:31:40;;;;;;;3.63;2.63;;;;;;;17.48;100.00;97869.28;5053212;28;20205;-73
2023/09/20 07:34:08;;;;;;;3.47;2.90;;;;;;;17.61;100.00;97868.78;5053404;28;20201;-73
2023/09/20 07:36:36;;;;;;;4.37;2.90;;;;;;;17.61;100.00;97858.84;5053435;28;20292;-73
2023/09/20 07:39:05;;;;;;;4.90;2.80;;;;;;;17.66;100.00;97860.72;5053387;28;20229;-73
2023/09/20 07:41:32;;;;;;;5.87;2.80;;;;;;;17.68;100.00;97863.91;5053176;28;20209;-73
2023/09/20 07:43:58;;;;;;;3.97;2.70;;;;;;;17.69;100.00;97869.03;5053202;28;20285;-73
2023/09/20 07:46:25;;;;;;;4.93;2.90;;;;;;;17.79;100.00;97868.25;5053046;28;20197;-73
2023/09/20 07:48:51;;;;;;;4.90;2.97;;;;;;;17.87;100.00;97865.81;5052736;28;20228;-73
2023/09/20 07:51:25;;;;;;;5.77;2.63;;;;;;;17.89;100.00;97869.06;5053100;28;20676;-73
2023/09/20 07:53:54;;;;;;;6.13;2.43;;;;;;;17.92;100.00;97854.25;5053253;28;20194;-73
2023/09/20 07:56:21;;;;;;;4.00;2.70;;;;;;;17.99;100.00;97858.28;5052822;28;20236;-73
2023/09/20 07:58:48;;;;;;;5.97;2.80;;;;;;;18.03;100.00;97863.91;5052534;28;20240;-73
2023/09/20 08:01:17;;;;;;;4.37;2.80;;;;;;;18.17;100.00;97852.34;5053182;28;20201;-73
2023/09/20 08:03:50;;;;;;;5.83;2.97;;;;;;;18.44;100.00;97852.84;5053002;28;20683;-73
2023/09/20 08:06:20;;;;;;;4.17;2.67;;;;;;;18.75;100.00;97854.34;5055872;28;20576;-73
2023/09/20 08:08:48;;;;;;;5.13;3.57;;;;;;;18.70;100.00;97845.50;5057526;28;20311;-73
2023/09/20 08:11:14;;;;;;;5.77;3.03;;;;;;;18.65;100.00;97835.56;5057202;28;20284;-73
2023/09/20 08:13:41;;;;;;;4.43;2.67;;;;;;;18.75;100.00;97832.81;5057052;28;20209;-72
2023/09/20 08:16:10;;;;;;;4.67;2.87;;;;;;;18.78;100.00;97831.44;5057022;28;20284;-72
2023/09/20 08:21:26;;;;;;;4.17;2.63;;;;;;;18.84;100.00;97825.78;5057138;28;20176;-72
2023/09/20 08:59:51;;;;;;;6.17;2.07;;;;;;;20.63;93.12;97857.00;5055994;28;20216;-72
2023/09/20 09:02:18;;;;;;;2.87;2.10;;;;;;;20.68;92.29;97862.34;5055807;28;20190;-73
2023/09/20 09:04:47;;;;;;;4.17;1.90;;;;;;;20.95;87.62;97856.34;5056021;28;20229;-72
2023/09/20 09:07:14;;;;;;;4.30;1.87;;;;;;;20.95;89.79;97851.78;5055669;28;20676;-72
2023/09/20 09:09:41;;;;;;;2.80;1.83;;;;;;;21.01;87.68;97841.69;5055652;28;20688;-72
2023/09/20 09:12:09;;;;;;;3.17;1.63;;;;;;;21.31;87.17;97847.50;5056088;28;20296;-72
2023/09/20 09:14:38;;;;;;;3.53;1.70;;;;;;;21.36;89.15;97838.50;5056126;28;20291;-72
2023/09/20 09:17:06;;;;;;;3.00;2.07;;;;;;;21.57;85.40;97837.88;5054457;28;20691;-72
2023/09/20 09:19:33;;;;;;;2.20;1.80;;;;;;;21.51;86.51;97839.06;5055560;28;20794;-72
2023/09/20 09:22:00;;;;;;;4.27;2.00;;;;;;;21.51;84.64;97839.06;5056074;28;20205;-72
2023/09/20 09:24:28;;;;;;;5.20;2.37;;;;;;;21.71;85.54;97832.56;5055736;28;20225;-72
2023/09/20 09:27:05;;;;;;;3.13;2.00;;;;;;;21.52;85.91;97821.72;5055610;28;20205;-72
2023/09/20 09:29:32;;;;;;;4.00;2.20;;;;;;;21.65;85.27;97828.28;5055586;28;20217;-72
2023/09/20 09:32:01;;;;;;;3.22;2.00;;;;;;;21.77;83.52;97824.09;5055231;28;20301;-72
2023/09/20 09:34:28;;;;;;;2.28;2.10;;;;;;;21.82;86.17;97820.47;5055559;28;20251;-72
2023/09/20 09:36:54;;;;;;;2.40;1.70;;;;;;;22.03;79.07;97827.16;5055533;28;20205;-72
2023/09/20 09:39:21;;;;;;;2.35;1.73;;;;;;;22.16;77.05;97818.25;5055597;28;20699;-72
2023/09/20 09:41:47;;;;;;;3.95;1.60;;;;;;;22.36;77.29;97815.16;5055585;28;20205;-72
2023/09/20 09:44:15;;;;;;;3.05;1.60;;;;;;;22.25;76.96;97809.13;5055144;28;20205;-72
2023/09/20 09:46:43;;;;;;;1.50;1.40;;;;;;;22.36;75.25;97807.84;5055071;28;20609;-71
2023/09/20 09:49:11;;;;;;;1.40;1.30;;;;;;;22.48;70.29;97810.88;5055586;28;20279;-72
2023/09/20 09:51:45;;;;;;;2.10;1.90;;;;;;;22.59;68.46;97803.34;5054983;28;20690;-72
2023/09/20 09:54:12;;;;;;;2.00;1.52;;;;;;;22.59;69.01;97803.34;5055549;28;20193;-72
2023/09/20 09:56:40;;;;;;;2.25;1.75;;;;;;;22.60;66.16;97797.63;5055298;28;20267;-72
2023/09/20 09:59:06;;;;;;;1.85;1.70;;;;;;;22.48;66.55;97788.41;5054728;28;20244;-72
2023/09/20 10:01:37;;;;;;;2.10;1.65;;;;;;;22.66;67.51;97787.50;5055885;28;20201;-72
2023/09/20 10:04:13;;;;;;;2.55;1.70;;;;;;;22.91;64.44;97779.63;5054867;28;20205;-72
2023/09/20 10:06:52;;;;;;;2.20;1.75;;;;;;;23.03;64.05;97774.50;5054884;28;20225;-72
2023/09/20 10:09:25;;;;;;;2.25;1.55;;;;;;;22.76;61.70;97779.97;5054950;28;20235;-73
2023/09/20 10:11:52;;;;;;;2.67;1.85;;;;;;;22.82;63.15;97778.75;5054957;28;20200;-73
2023/09/20 10:14:22;;;;;;;1.75;1.65;;;;;;;22.87;62.25;97769.69;5054163;28;20672;-73
2023/09/20 10:16:49;;;;;;;3.40;1.90;;;;;;;23.27;59.69;97780.47;5054741;28;20205;-72
2023/09/20 10:19:16;;;;;;;3.05;1.90;;;;;;;23.17;59.87;97760.88;5054795;28;20278;-72
2023/09/20 10:22:08;;;;;;;1.80;1.70;;;;;;;23.55;56.64;97764.88;5054531;28;20205;-72
2023/09/20 10:24:50;;;;;;;4.80;2.20;;;;;;;23.75;54.42;97764.38;5054535;28;20192;-72
2023/09/20 10:27:20;;;;;;;3.58;2.33;;;;;;;23.63;52.30;97758.72;5054492;28;20680;-72
2023/09/20 10:30:05;;;;;;;2.20;2.00;;;;;;;23.69;49.32;97757.50;5055226;28;20201;-73
2023/09/20 10:32:36;;;;;;;2.83;2.10;;;;;;;23.76;48.26;97753.22;5054403;28;20194;-73
2023/09/20 10:35:20;;;;;;;4.30;1.75;;;;;;;23.96;47.83;97751.91;5054499;28;20299;-73
2023/09/20 10:38:08;;;;;;;2.33;2.08;;;;;;;23.80;48.06;97748.78;5054089;28;20229;-73
2023/09/20 10:41:07;;;;;;;3.58;1.92;;;;;;;23.85;46.25;97742.41;5054311;28;20197;-73
2023/09/20 10:43:36;;;;;;;2.00;1.90;;;;;;;23.67;45.23;97737.97;5035259;28;20208;-73
2023/09/20 10:46:14;;;;;;;2.17;1.98;;;;;;;23.83;44.57;97731.84;5054070;28;20225;-73
2023/09/20 10:48:52;;;;;;;2.00;1.90;;;;;;;24.15;44.68;97725.34;5054175;28;20390;-73
2023/09/20 10:51:40;;;;;;;1.90;1.80;;;;;;;24.19;45.89;97721.66;5054252;28;20193;-72
2023/09/20 10:54:26;;;;;;;2.50;2.30;;;;;;;24.09;43.82;97723.84;5054051;28;20545;-72
2023/09/20 10:56:51;;;;;;;2.75;2.15;;;;;;;24.07;43.48;97715.22;5053850;28;20217;-72
2023/09/20 10:59:23;;;;;;;2.83;2.28;;;;;;;23.78;45.01;97712.97;5053420;28;20271;-72
2023/09/20 11:01:53;;;;;;;1.90;1.80;;;;;;;23.81;44.50;97709.66;5053904;28;20193;-72
2023/09/20 11:04:20;;;;;;;2.92;2.17;;;;;;;24.08;42.75;97701.34;5053865;28;20224;-72
2023/09/20 11:06:52;;;;;;;2.40;2.10;;;;;;;23.82;42.62;97696.84;5052445;28;20552;-72
2023/09/20 11:09:20;;;;;;;3.75;2.65;;;;;;;24.07;44.24;97688.06;5053822;28;20233;-72
2023/09/20 11:11:48;;;;;;;2.55;2.30;;;;;;;23.99;40.96;97688.81;5053790;28;20311;-73
2023/09/20 11:14:14;;;;;;;2.20;2.00;;;;;;;24.18;43.12;97681.22;5053528;28;20209;-73
2023/09/20 11:16:43;;;;;;;2.42;2.17;;;;;;;24.11;41.60;97684.38;5053464;28;20201;-73
2023/09/20 11:19:13;;;;;;;3.20;2.20;;;;;;;24.25;39.30;97687.00;5053591;28;20237;-73
2023/09/20 11:21:41;;;;;;;2.50;2.30;;;;;;;24.13;38.61;97694.94;5053611;28;20185;-73
2023/09/20 11:24:12;;;;;;;2.97;2.70;;;;;;;24.20;37.87;97676.28;5053572;28;20206;-72
2023/09/20 11:26:40;;;;;;;2.80;2.60;;;;;;;24.14;37.16;97677.53;5053041;28;20582;-72
2023/09/20 11:29:10;;;;;;;2.30;2.10;;;;;;;24.18;39.44;97671.16;5052955;28;20225;-72
2023/09/20 11:31:38;;;;;;;2.75;2.25;;;;;;;24.35;38.66;97675.84;5053462;28;20201;-72
2023/09/20 11:34:05;;;;;;;2.72;2.53;;;;;;;24.33;39.86;97668.00;5053457;28;20291;-72
2023/09/20 11:36:44;;;;;;;2.85;2.50;;;;;;;23.88;39.65;97671.19;5052748;28;20714;-72
2023/09/20 11:39:14;;;;;;;2.58;2.00;;;;;;;23.97;41.41;97666.63;5052816;28;20224;-72
2023/09/20 11:41:44;;;;;;;2.78;2.42;;;;;;;24.10;42.82;97661.06;5053036;28;20217;-72
2023/09/20 11:44:10;;;;;;;2.00;1.90;;;;;;;24.27;42.76;97654.88;5052781;28;20282;-73
2023/09/20 11:46:37;;;;;;;2.58;2.20;;;;;;;24.14;43.39;97656.59;5052906;28;20603;-73
2023/09/20 11:49:05;;;;;;;2.22;2.00;;;;;;;24.19;43.22;97652.97;5052365;28;20287;-73
2023/09/20 11:51:36;;;;;;;2.10;2.00;;;;;;;24.30;43.91;97660.50;5052984;28;20209;-73
2023/09/20 11:54:06;;;;;;;2.92;2.10;;;;;;;24.32;43.99;97657.44;5053369;28;20190;-73
2023/09/20 11:56:35;;;;;;;2.08;1.98;;;;;;;24.38;44.43;97650.75;5052872;28;20686;-73
2023/09/20 11:59:06;;;;;;;2.10;2.00;;;;;;;24.47;44.19;97651.56;5052684;28;20243;-73
2023/09/20 12:01:35;;;;;;;3.20;2.17;;;;;;;24.37;43.93;97638.31;5052907;28;20189;-73
2023/09/20 12:04:03;;;;;;;2.05;1.85;;;;;;;24.36;44.34;97631.25;5052618;28;20240;-73
2023/09/20 12:06:31;;;;;;;1.92;1.70;;;;;;;24.09;44.73;97628.78;5052280;28;20274;-73
2023/09/20 12:09:00;;;;;;;2.10;2.00;;;;;;;23.85;44.80;97633.81;5052685;28;20225;-73
2023/09/20 12:11:26;;;;;;;1.90;1.60;;;;;;;24.17;45.28;97628.00;5053001;28;20207;-73